sensor_id;sensor_type;location;lat;lon;timestamp;temperature;humidity
41644;DHT22;44236;48.098;11.582;2023-10-08T00:01:42;21.70;47.60
41644;DHT22;44236;48.098;11.582;2023-10-08T00:04:10;21.70;47.60
41644;DHT22;44236;48.098;11.582;2023-10-08T00:06:45;21.60;47.60
41644;DHT22;44236;48.098;11.582;2023-10-08T00:09:12;21.70;47.70
41644;DHT22;44236;48.098;11.582;2023-10-08T00:11:38;21.60;47.70
41644;DHT22;44236;48.098;11.582;2023-10-08T00:14:07;21.70;47.80
41644;DHT22;44236;48.098;11.582;2023-10-08T00:16:36;21.60;47.80
41644;DHT22;44236;48.098;11.582;2023-10-08T00:19:07;21.60;47.80
41644;DHT22;44236;48.098;11.582;2023-10-08T00:21:34;21.60;47.90
41644;DHT22;44236;48.098;11.582;2023-10-08T00:24:01;21.60;47.90
41644;DHT22;44236;48.098;11.582;2023-10-08T00:26:31;21.50;47.90
41644;DHT22;44236;48.098;11.582;2023-10-08T00:31:25;21.60;48.00
41644;DHT22;44236;48.098;11.582;2023-10-08T00:33:56;21.60;48.00
41644;DHT22;44236;48.098;11.582;2023-10-08T00:36:22;21.60;48.10
41644;DHT22;44236;48.098;11.582;2023-10-08T00:38:50;21.60;48.10
41644;DHT22;44236;48.098;11.582;2023-10-08T00:41:17;21.60;48.10
41644;DHT22;44236;48.098;11.582;2023-10-08T00:43:48;21.60;48.20
41644;DHT22;44236;48.098;11.582;2023-10-08T00:46:16;21.60;48.30
41644;DHT22;44236;48.098;11.582;2023-10-08T00:48:47;21.60;48.30
41644;DHT22;44236;48.098;11.582;2023-10-08T00:51:14;21.60;48.30
41644;DHT22;44236;48.098;11.582;2023-10-08T00:54:04;21.60;48.40
41644;DHT22;44236;48.098;11.582;2023-10-08T00:56:34;21.60;48.40
41644;DHT22;44236;48.098;11.582;2023-10-08T00:59:33;21.60;48.40
41644;DHT22;44236;48.098;11.582;2023-10-08T01:02:16;21.50;48.40
41644;DHT22;44236;48.098;11.582;2023-10-08T01:04:45;21.50;48.40
41644;DHT22;44236;48.098;11.582;2023-10-08T01:07:12;21.60;48.50
41644;DHT22;44236;48.098;11.582;2023-10-08T01:09:44;21.50;48.50
41644;DHT22;44236;48.098;11.582;2023-10-08T01:12:20;21.50;49.00
41644;DHT22;44236;48.098;11.582;2023-10-08T01:15:00;21.50;48.60
41644;DHT22;44236;48.098;11.582;2023-10-08T01:17:41;21.50;48.60
41644;DHT22;44236;48.098;11.582;2023-10-08T01:20:18;21.50;48.60
41644;DHT22;44236;48.098;11.582;2023-10-08T01:23:14;21.50;48.60
41644;DHT22;44236;48.098;11.582;2023-10-08T01:25:43;21.50;48.70
41644;DHT22;44236;48.098;11.582;2023-10-08T01:28:09;21.50;48.70
41644;DHT22;44236;48.098;11.582;2023-10-08T01:30:58;21.50;48.70
41644;DHT22;44236;48.098;11.582;2023-10-08T01:33:26;21.50;48.70
41644;DHT22;44236;48.098;11.582;2023-10-08T01:36:05;21.50;48.70
41644;DHT22;44236;48.098;11.582;2023-10-08T01:38:33;21.50;48.80
41644;DHT22;44236;48.098;11.582;2023-10-08T01:41:00;21.50;48.80
41644;DHT22;44236;48.098;11.582;2023-10-08T01:43:29;21.50;48.80
41644;DHT22;44236;48.098;11.582;2023-10-08T01:45:55;21.50;48.80
41644;DHT22;44236;48.098;11.582;2023-10-08T01:48:22;21.50;48.80
41644;DHT22;44236;48.098;11.582;2023-10-08T01:50:59;21.50;48.90
41644;DHT22;44236;48.098;11.582;2023-10-08T01:53:27;21.50;48.90
41644;DHT22;44236;48.098;11.582;2023-10-08T01:55:53;21.50;48.90
41644;DHT22;44236;48.098;11.582;2023-10-08T01:58:21;21.50;48.90
41644;DHT22;44236;48.098;11.582;2023-10-08T02:00:48;21.50;49.00
41644;DHT22;44236;48.098;11.582;2023-10-08T02:03:16;21.50;49.00
41644;DHT22;44236;48.098;11.582;2023-10-08T02:05:48;21.50;49.00
41644;DHT22;44236;48.098;11.582;2023-10-08T02:08:14;21.50;49.00
41644;DHT22;44236;48.098;11.582;2023-10-08T02:10:43;21.50;49.00
41644;DHT22;44236;48.098;11.582;2023-10-08T02:13:09;21.50;49.10
41644;DHT22;44236;48.098;11.582;2023-10-08T02:15:47;21.50;49.10
41644;DHT22;44236;48.098;11.582;2023-10-08T02:18:15;21.50;49.60
41644;DHT22;44236;48.098;11.582;2023-10-08T02:20:41;21.50;49.10
41644;DHT22;44236;48.098;11.582;2023-10-08T02:23:09;21.50;49.30
41644;DHT22;44236;48.098;11.582;2023-10-08T02:25:37;21.50;49.10
41644;DHT22;44236;48.098;11.582;2023-10-08T02:28:08;21.50;49.10
41644;DHT22;44236;48.098;11.582;2023-10-08T02:30:37;21.50;49.20
41644;DHT22;44236;48.098;11.582;2023-10-08T02:33:07;21.50;49.20
41644;DHT22;44236;48.098;11.582;2023-10-08T02:35:47;21.40;49.20
41644;DHT22;44236;48.098;11.582;2023-10-08T02:38:16;21.50;49.20
41644;DHT22;44236;48.098;11.582;2023-10-08T02:40:42;21.50;49.30
41644;DHT22;44236;48.098;11.582;2023-10-08T02:43:14;21.50;49.30
41644;DHT22;44236;48.098;11.582;2023-10-08T02:45:41;21.50;49.30
41644;DHT22;44236;48.098;11.582;2023-10-08T02:48:08;21.40;49.30
41644;DHT22;44236;48.098;11.582;2023-10-08T02:50:41;21.40;49.20
41644;DHT22;44236;48.098;11.582;2023-10-08T02:53:07;21.40;49.30
41644;DHT22;44236;48.098;11.582;2023-10-08T02:55:43;21.50;49.30
41644;DHT22;44236;48.098;11.582;2023-10-08T02:58:12;21.50;49.40
41644;DHT22;44236;48.098;11.582;2023-10-08T03:00:46;21.40;49.30
41644;DHT22;44236;48.098;11.582;2023-10-08T03:03:21;21.40;49.40
41644;DHT22;44236;48.098;11.582;2023-10-08T03:05:51;21.40;49.40
41644;DHT22;44236;48.098;11.582;2023-10-08T03:08:18;21.50;49.40
41644;DHT22;44236;48.098;11.582;2023-10-08T03:10:48;21.40;49.40
41644;DHT22;44236;48.098;11.582;2023-10-08T03:13:17;21.40;49.40
41644;DHT22;44236;48.098;11.582;2023-10-08T03:15:44;21.40;49.40
41644;DHT22;44236;48.098;11.582;2023-10-08T03:18:29;21.40;49.40
41644;DHT22;44236;48.098;11.582;2023-10-08T03:21:08;21.40;49.40
41644;DHT22;44236;48.098;11.582;2023-10-08T03:23:54;21.40;49.40
41644;DHT22;44236;48.098;11.582;2023-10-08T03:26:23;21.40;49.50
41644;DHT22;44236;48.098;11.582;2023-10-08T03:29:04;21.40;49.40
41644;DHT22;44236;48.098;11.582;2023-10-08T03:31:33;21.40;49.40
41644;DHT22;44236;48.098;11.582;2023-10-08T03:34:15;21.40;49.40
41644;DHT22;44236;48.098;11.582;2023-10-08T03:36:44;21.40;49.50
41644;DHT22;44236;48.098;11.582;2023-10-08T03:39:14;21.40;49.50
41644;DHT22;44236;48.098;11.582;2023-10-08T03:41:40;21.40;49.50
41644;DHT22;44236;48.098;11.582;2023-10-08T03:44:07;21.40;49.50
41644;DHT22;44236;48.098;11.582;2023-10-08T03:46:39;21.40;49.50
41644;DHT22;44236;48.098;11.582;2023-10-08T03:49:06;21.40;49.60
41644;DHT22;44236;48.098;11.582;2023-10-08T03:51:39;21.40;49.60
41644;DHT22;44236;48.098;11.582;2023-10-08T03:54:08;21.60;49.70
41644;DHT22;44236;48.098;11.582;2023-10-08T03:57:00;21.40;49.60
41644;DHT22;44236;48.098;11.582;2023-10-08T03:59:26;21.40;49.60
41644;DHT22;44236;48.098;11.582;2023-10-08T04:01:55;21.40;49.70
41644;DHT22;44236;48.098;11.582;2023-10-08T04:04:25;21.40;49.70
41644;DHT22;44236;48.098;11.582;2023-10-08T04:07:08;21.40;49.70
41644;DHT22;44236;48.098;11.582;2023-10-08T04:09:58;21.40;49.60
41644;DHT22;44236;48.098;11.582;2023-10-08T04:12:36;21.40;49.70
41644;DHT22;44236;48.098;11.582;2023-10-08T04:15:06;21.40;49.70
41644;DHT22;44236;48.098;11.582;2023-10-08T04:17:40;21.40;49.70
41644;DHT22;44236;48.098;11.582;2023-10-08T04:20:14;21.40;49.70
41644;DHT22;44236;48.098;11.582;2023-10-08T04:22:59;21.40;49.70
41644;DHT22;44236;48.098;11.582;2023-10-08T04:25:29;21.40;49.70
41644;DHT22;44236;48.098;11.582;2023-10-08T04:27:55;21.40;49.70
41644;DHT22;44236;48.098;11.582;2023-10-08T04:30:33;21.40;49.70
41644;DHT22;44236;48.098;11.582;2023-10-08T04:33:03;21.40;49.80
41644;DHT22;44236;48.098;11.582;2023-10-08T04:35:36;21.40;49.70
41644;DHT22;44236;48.098;11.582;2023-10-08T04:38:25;21.40;49.80
41644;DHT22;44236;48.098;11.582;2023-10-08T04:40:52;21.40;49.80
41644;DHT22;44236;48.098;11.582;2023-10-08T04:43:22;21.40;49.80
41644;DHT22;44236;48.098;11.582;2023-10-08T04:45:51;21.40;49.80
41644;DHT22;44236;48.098;11.582;2023-10-08T04:48:17;21.40;49.80
41644;DHT22;44236;48.098;11.582;2023-10-08T04:50:49;21.40;49.80
41644;DHT22;44236;48.098;11.582;2023-10-08T04:53:27;21.40;49.80
41644;DHT22;44236;48.098;11.582;2023-10-08T04:56:01;21.40;49.90
41644;DHT22;44236;48.098;11.582;2023-10-08T04:58:43;21.40;49.80
41644;DHT22;44236;48.098;11.582;2023-10-08T05:01:16;21.40;50.10
41644;DHT22;44236;48.098;11.582;2023-10-08T05:03:53;21.40;50.00
41644;DHT22;44236;48.098;11.582;2023-10-08T05:06:31;21.40;50.00
41644;DHT22;44236;48.098;11.582;2023-10-08T05:09:06;21.40;50.00
41644;DHT22;44236;48.098;11.582;2023-10-08T05:11:44;21.40;50.00
41644;DHT22;44236;48.098;11.582;2023-10-08T05:14:23;21.40;50.00
41644;DHT22;44236;48.098;11.582;2023-10-08T05:17:02;21.40;49.90
41644;DHT22;44236;48.098;11.582;2023-10-08T05:19:37;21.40;49.90
41644;DHT22;44236;48.098;11.582;2023-10-08T05:22:15;21.40;50.00
41644;DHT22;44236;48.098;11.582;2023-10-08T05:24:48;21.40;50.00
41644;DHT22;44236;48.098;11.582;2023-10-08T05:27:53;21.40;49.90
41644;DHT22;44236;48.098;11.582;2023-10-08T05:30:20;21.40;50.00
41644;DHT22;44236;48.098;11.582;2023-10-08T05:33:06;21.40;50.00
41644;DHT22;44236;48.098;11.582;2023-10-08T05:35:39;21.40;50.00
41644;DHT22;44236;48.098;11.582;2023-10-08T05:38:13;21.40;50.00
41644;DHT22;44236;48.098;11.582;2023-10-08T05:40:51;21.40;50.00
41644;DHT22;44236;48.098;11.582;2023-10-08T05:43:20;21.40;50.10
41644;DHT22;44236;48.098;11.582;2023-10-08T05:46:10;21.40;50.10
41644;DHT22;44236;48.098;11.582;2023-10-08T05:48:52;21.40;50.20
41644;DHT22;44236;48.098;11.582;2023-10-08T05:51:38;21.40;50.20
41644;DHT22;44236;48.098;11.582;2023-10-08T05:54:24;21.40;50.10
41644;DHT22;44236;48.098;11.582;2023-10-08T05:56:56;21.40;50.10
41644;DHT22;44236;48.098;11.582;2023-10-08T05:59:41;21.40;50.10
41644;DHT22;44236;48.098;11.582;2023-10-08T06:02:26;21.40;50.10
41644;DHT22;44236;48.098;11.582;2023-10-08T06:05:02;21.50;50.20
41644;DHT22;44236;48.098;11.582;2023-10-08T06:07:45;21.40;50.20
41644;DHT22;44236;48.098;11.582;2023-10-08T06:10:31;21.40;50.70
41644;DHT22;44236;48.098;11.582;2023-10-08T06:13:07;21.40;50.60
41644;DHT22;44236;48.098;11.582;2023-10-08T06:15:46;21.40;50.60
41644;DHT22;44236;48.098;11.582;2023-10-08T06:18:23;21.40;50.80
41644;DHT22;44236;48.098;11.582;2023-10-08T06:20:55;21.50;50.90
41644;DHT22;44236;48.098;11.582;2023-10-08T06:23:22;21.40;50.60
41644;DHT22;44236;48.098;11.582;2023-10-08T06:25:54;21.50;51.30
41644;DHT22;44236;48.098;11.582;2023-10-08T06:28:25;21.50;50.60
41644;DHT22;44236;48.098;11.582;2023-10-08T06:30:53;21.40;50.60
41644;DHT22;44236;48.098;11.582;2023-10-08T06:33:19;21.50;50.70
41644;DHT22;44236;48.098;11.582;2023-10-08T06:35:46;21.40;50.50
41644;DHT22;44236;48.098;11.582;2023-10-08T06:38:27;21.40;50.40
41644;DHT22;44236;48.098;11.582;2023-10-08T06:40:53;21.40;50.50
41644;DHT22;44236;48.098;11.582;2023-10-08T06:43:18;21.50;50.70
41644;DHT22;44236;48.098;11.582;2023-10-08T06:45:50;21.40;50.20
41644;DHT22;44236;48.098;11.582;2023-10-08T06:48:23;21.40;50.10
41644;DHT22;44236;48.098;11.582;2023-10-08T06:50:50;21.40;50.10
41644;DHT22;44236;48.098;11.582;2023-10-08T06:53:17;21.40;50.00
41644;DHT22;44236;48.098;11.582;2023-10-08T06:55:47;21.40;49.90
41644;DHT22;44236;48.098;11.582;2023-10-08T06:58:23;21.40;46.20
41644;DHT22;44236;48.098;11.582;2023-10-08T07:00:51;21.30;43.00
41644;DHT22;44236;48.098;11.582;2023-10-08T07:03:17;21.30;42.60
41644;DHT22;44236;48.098;11.582;2023-10-08T07:05:51;21.20;41.90
41644;DHT22;44236;48.098;11.582;2023-10-08T07:08:23;21.20;41.10
41644;DHT22;44236;48.098;11.582;2023-10-08T07:10:53;21.10;40.60
41644;DHT22;44236;48.098;11.582;2023-10-08T07:13:20;21.10;40.90
41644;DHT22;44236;48.098;11.582;2023-10-08T07:15:51;21.10;41.50
41644;DHT22;44236;48.098;11.582;2023-10-08T07:18:17;21.10;41.10
41644;DHT22;44236;48.098;11.582;2023-10-08T07:20:51;21.10;40.80
41644;DHT22;44236;48.098;11.582;2023-10-08T07:23:23;21.10;41.10
41644;DHT22;44236;48.098;11.582;2023-10-08T07:28:23;21.10;40.70
41644;DHT22;44236;48.098;11.582;2023-10-08T07:30:51;21.10;40.50
41644;DHT22;44236;48.098;11.582;2023-10-08T07:33:18;21.10;40.90
41644;DHT22;44236;48.098;11.582;2023-10-08T07:35:47;21.10;40.50
41644;DHT22;44236;48.098;11.582;2023-10-08T07:38:38;21.10;40.20
41644;DHT22;44236;48.098;11.582;2023-10-08T07:41:04;21.10;40.40
41644;DHT22;44236;48.098;11.582;2023-10-08T07:43:31;21.10;41.30
41644;DHT22;44236;48.098;11.582;2023-10-08T07:45:58;21.20;40.50
41644;DHT22;44236;48.098;11.582;2023-10-08T07:48:24;21.20;40.50
41644;DHT22;44236;48.098;11.582;2023-10-08T07:50:55;21.20;40.30
41644;DHT22;44236;48.098;11.582;2023-10-08T07:53:24;21.20;40.00
41644;DHT22;44236;48.098;11.582;2023-10-08T07:55:50;21.20;40.10
41644;DHT22;44236;48.098;11.582;2023-10-08T07:58:17;21.20;39.90
41644;DHT22;44236;48.098;11.582;2023-10-08T08:00:44;21.20;40.70
41644;DHT22;44236;48.098;11.582;2023-10-08T08:03:22;21.20;41.50
41644;DHT22;44236;48.098;11.582;2023-10-08T08:05:48;21.20;42.40
41644;DHT22;44236;48.098;11.582;2023-10-08T08:08:18;21.30;43.40
41644;DHT22;44236;48.098;11.582;2023-10-08T08:10:46;21.30;43.80
41644;DHT22;44236;48.098;11.582;2023-10-08T08:13:12;21.40;44.70
41644;DHT22;44236;48.098;11.582;2023-10-08T08:15:46;21.50;45.50
41644;DHT22;44236;48.098;11.582;2023-10-08T08:18:16;21.50;44.90
41644;DHT22;44236;48.098;11.582;2023-10-08T08:20:48;21.60;45.30
41644;DHT22;44236;48.098;11.582;2023-10-08T08:23:14;21.60;45.40
41644;DHT22;44236;48.098;11.582;2023-10-08T08:25:42;21.70;45.60
41644;DHT22;44236;48.098;11.582;2023-10-08T08:28:12;21.70;46.40
41644;DHT22;44236;48.098;11.582;2023-10-08T08:30:46;21.70;46.50
41644;DHT22;44236;48.098;11.582;2023-10-08T08:44:39;21.80;46.50
41644;DHT22;44236;48.098;11.582;2023-10-08T08:47:14;21.80;47.30
41644;DHT22;44236;48.098;11.582;2023-10-08T08:49:44;21.80;47.30
41644;DHT22;44236;48.098;11.582;2023-10-08T08:52:12;21.80;47.40
41644;DHT22;44236;48.098;11.582;2023-10-08T08:54:39;21.80;47.40
41644;DHT22;44236;48.098;11.582;2023-10-08T08:57:05;21.90;47.10
41644;DHT22;44236;48.098;11.582;2023-10-08T08:59:38;21.80;47.10
41644;DHT22;44236;48.098;11.582;2023-10-08T09:02:04;21.90;47.20
41644;DHT22;44236;48.098;11.582;2023-10-08T09:04:33;21.90;47.30
41644;DHT22;44236;48.098;11.582;2023-10-08T09:06:59;21.90;47.60
41644;DHT22;44236;48.098;11.582;2023-10-08T09:09:33;21.90;47.30
41644;DHT22;44236;48.098;11.582;2023-10-08T09:12:00;21.90;47.30
41644;DHT22;44236;48.098;11.582;2023-10-08T09:14:28;21.90;47.70
41644;DHT22;44236;48.098;11.582;2023-10-08T09:17:01;21.90;47.70
41644;DHT22;44236;48.098;11.582;2023-10-08T09:19:35;21.90;47.70
41644;DHT22;44236;48.098;11.582;2023-10-08T09:22:01;22.00;47.40
41644;DHT22;44236;48.098;11.582;2023-10-08T09:24:31;22.00;48.20
41644;DHT22;44236;48.098;11.582;2023-10-08T09:26:59;21.90;47.70
41644;DHT22;44236;48.098;11.582;2023-10-08T09:29:28;21.90;48.30
41644;DHT22;44236;48.098;11.582;2023-10-08T09:31:56;21.90;48.50
41644;DHT22;44236;48.098;11.582;2023-10-08T09:34:26;22.00;48.40
41644;DHT22;44236;48.098;11.582;2023-10-08T09:36:53;22.00;49.00
41644;DHT22;44236;48.098;11.582;2023-10-08T09:39:20;22.00;48.80
41644;DHT22;44236;48.098;11.582;2023-10-08T09:41:55;22.00;48.40
41644;DHT22;44236;48.098;11.582;2023-10-08T09:44:22;22.00;48.10
41644;DHT22;44236;48.098;11.582;2023-10-08T09:47:03;22.00;47.50
41644;DHT22;44236;48.098;11.582;2023-10-08T09:49:49;22.00;48.70
41644;DHT22;44236;48.098;11.582;2023-10-08T09:52:23;22.00;50.00
41644;DHT22;44236;48.098;11.582;2023-10-08T09:54:59;22.00;49.50
41644;DHT22;44236;48.098;11.582;2023-10-08T09:57:25;22.10;49.20
41644;DHT22;44236;48.098;11.582;2023-10-08T09:59:52;22.10;49.40
41644;DHT22;44236;48.098;11.582;2023-10-08T10:02:19;22.10;50.90
41644;DHT22;44236;48.098;11.582;2023-10-08T10:04:49;22.10;49.70
41644;DHT22;44236;48.098;11.582;2023-10-08T10:07:16;22.10;50.00
41644;DHT22;44236;48.098;11.582;2023-10-08T10:09:46;22.10;50.10
41644;DHT22;44236;48.098;11.582;2023-10-08T10:12:39;22.10;49.50
41644;DHT22;44236;48.098;11.582;2023-10-08T10:15:05;22.10;51.00
41644;DHT22;44236;48.098;11.582;2023-10-08T10:17:33;22.10;51.00
41644;DHT22;44236;48.098;11.582;2023-10-08T10:20:03;22.00;49.70
41644;DHT22;44236;48.098;11.582;2023-10-08T10:22:36;22.00;49.40
41644;DHT22;44236;48.098;11.582;2023-10-08T10:25:02;22.00;49.60
41644;DHT22;44236;48.098;11.582;2023-10-08T10:30:24;22.00;50.00
41644;DHT22;44236;48.098;11.582;2023-10-08T10:32:53;22.00;49.50
41644;DHT22;44236;48.098;11.582;2023-10-08T10:35:19;22.00;49.70
41644;DHT22;44236;48.098;11.582;2023-10-08T10:37:48;22.00;51.40
41644;DHT22;44236;48.098;11.582;2023-10-08T10:40:29;22.00;51.20
41644;DHT22;44236;48.098;11.582;2023-10-08T10:43:05;22.00;52.60
41644;DHT22;44236;48.098;11.582;2023-10-08T10:45:32;21.90;53.70
41644;DHT22;44236;48.098;11.582;2023-10-08T10:48:04;22.00;52.70
41644;DHT22;44236;48.098;11.582;2023-10-08T10:50:50;21.90;49.80
41644;DHT22;44236;48.098;11.582;2023-10-08T10:53:35;21.90;50.90
41644;DHT22;44236;48.098;11.582;2023-10-08T10:56:16;21.90;51.60
41644;DHT22;44236;48.098;11.582;2023-10-08T10:58:59;21.90;49.70
41644;DHT22;44236;48.098;11.582;2023-10-08T11:01:28;21.90;49.90
41644;DHT22;44236;48.098;11.582;2023-10-08T11:04:10;21.90;50.60
41644;DHT22;44236;48.098;11.582;2023-10-08T11:06:42;21.90;50.80
41644;DHT22;44236;48.098;11.582;2023-10-08T11:09:10;21.80;51.50
41644;DHT22;44236;48.098;11.582;2023-10-08T11:11:42;21.80;51.00
41644;DHT22;44236;48.098;11.582;2023-10-08T11:14:11;21.90;50.90
41644;DHT22;44236;48.098;11.582;2023-10-08T11:16:47;21.80;50.90
41644;DHT22;44236;48.098;11.582;2023-10-08T11:19:14;21.90;50.90
41644;DHT22;44236;48.098;11.582;2023-10-08T11:21:51;21.90;50.90
41644;DHT22;44236;48.098;11.582;2023-10-08T11:24:32;21.80;50.80
41644;DHT22;44236;48.098;11.582;2023-10-08T11:27:07;21.80;50.80
41644;DHT22;44236;48.098;11.582;2023-10-08T11:29:48;21.90;50.70
41644;DHT22;44236;48.098;11.582;2023-10-08T11:32:22;21.90;50.90
41644;DHT22;44236;48.098;11.582;2023-10-08T11:35:00;21.90;51.00
41644;DHT22;44236;48.098;11.582;2023-10-08T11:37:30;21.90;51.00
41644;DHT22;44236;48.098;11.582;2023-10-08T11:39:59;21.80;51.00
41644;DHT22;44236;48.098;11.582;2023-10-08T11:42:28;21.80;51.10
41644;DHT22;44236;48.098;11.582;2023-10-08T11:45:03;21.80;51.10
41644;DHT22;44236;48.098;11.582;2023-10-08T11:47:50;21.80;53.90
41644;DHT22;44236;48.098;11.582;2023-10-08T11:50:24;21.80;53.30
41644;DHT22;44236;48.098;11.582;2023-10-08T11:53:02;21.80;52.90
41644;DHT22;44236;48.098;11.582;2023-10-08T11:55:29;21.80;52.20
41644;DHT22;44236;48.098;11.582;2023-10-08T11:57:59;21.80;51.90
41644;DHT22;44236;48.098;11.582;2023-10-08T12:00:26;21.80;52.00
41644;DHT22;44236;48.098;11.582;2023-10-08T12:02:54;21.80;52.10
41644;DHT22;44236;48.098;11.582;2023-10-08T12:05:21;21.80;52.10
41644;DHT22;44236;48.098;11.582;2023-10-08T12:07:51;21.80;52.40
41644;DHT22;44236;48.098;11.582;2023-10-08T12:10:20;21.70;52.30
41644;DHT22;44236;48.098;11.582;2023-10-08T12:15:14;21.80;52.60
41644;DHT22;44236;48.098;11.582;2023-10-08T12:17:49;21.70;52.50
41644;DHT22;44236;48.098;11.582;2023-10-08T12:20:35;21.70;52.50
41644;DHT22;44236;48.098;11.582;2023-10-08T12:23:03;21.70;52.60
41644;DHT22;44236;48.098;11.582;2023-10-08T12:25:30;21.70;52.80
41644;DHT22;44236;48.098;11.582;2023-10-08T12:28:06;21.70;53.20
41644;DHT22;44236;48.098;11.582;2023-10-08T12:30:32;21.70;52.80
41644;DHT22;44236;48.098;11.582;2023-10-08T12:33:02;21.70;52.80
41644;DHT22;44236;48.098;11.582;2023-10-08T12:35:28;21.70;52.80
41644;DHT22;44236;48.098;11.582;2023-10-08T12:37:55;21.70;52.80
41644;DHT22;44236;48.098;11.582;2023-10-08T12:40:20;21.70;52.70
41644;DHT22;44236;48.098;11.582;2023-10-08T12:42:52;21.70;52.80
41644;DHT22;44236;48.098;11.582;2023-10-08T12:45:18;21.70;52.70
41644;DHT22;44236;48.098;11.582;2023-10-08T12:47:52;21.70;52.90
41644;DHT22;44236;48.098;11.582;2023-10-08T12:50:19;21.70;52.80
41644;DHT22;44236;48.098;11.582;2023-10-08T12:53:08;21.70;52.90
41644;DHT22;44236;48.098;11.582;2023-10-08T12:55:39;21.70;52.80
41644;DHT22;44236;48.098;11.582;2023-10-08T12:58:06;21.70;52.90
41644;DHT22;44236;48.098;11.582;2023-10-08T13:00:36;21.70;52.90
41644;DHT22;44236;48.098;11.582;2023-10-08T13:03:03;21.70;52.90
41644;DHT22;44236;48.098;11.582;2023-10-08T13:05:32;21.70;52.80
41644;DHT22;44236;48.098;11.582;2023-10-08T13:07:59;21.70;52.80
41644;DHT22;44236;48.098;11.582;2023-10-08T13:10:36;21.70;52.80
41644;DHT22;44236;48.098;11.582;2023-10-08T13:13:06;21.70;52.90
41644;DHT22;44236;48.098;11.582;2023-10-08T13:15:32;21.70;52.90
41644;DHT22;44236;48.098;11.582;2023-10-08T13:18:01;21.70;53.00
41644;DHT22;44236;48.098;11.582;2023-10-08T13:20:29;21.70;52.80
41644;DHT22;44236;48.098;11.582;2023-10-08T13:22:59;21.80;52.90
41644;DHT22;44236;48.098;11.582;2023-10-08T13:25:25;21.70;52.80
41644;DHT22;44236;48.098;11.582;2023-10-08T13:27:51;21.70;52.90
41644;DHT22;44236;48.098;11.582;2023-10-08T13:30:17;21.70;53.40
41644;DHT22;44236;48.098;11.582;2023-10-08T13:32:43;21.70;53.00
41644;DHT22;44236;48.098;11.582;2023-10-08T13:35:09;21.70;53.10
41644;DHT22;44236;48.098;11.582;2023-10-08T13:37:36;21.70;53.00
41644;DHT22;44236;48.098;11.582;2023-10-08T13:40:02;21.70;53.00
41644;DHT22;44236;48.098;11.582;2023-10-08T13:42:28;21.70;53.10
41644;DHT22;44236;48.098;11.582;2023-10-08T13:44:55;21.70;52.90
41644;DHT22;44236;48.098;11.582;2023-10-08T13:47:23;21.70;53.10
41644;DHT22;44236;48.098;11.582;2023-10-08T13:49:52;21.70;53.20
41644;DHT22;44236;48.098;11.582;2023-10-08T13:52:21;21.70;53.20
41644;DHT22;44236;48.098;11.582;2023-10-08T13:54:54;21.70;53.20
41644;DHT22;44236;48.098;11.582;2023-10-08T13:57:20;21.70;53.10
41644;DHT22;44236;48.098;11.582;2023-10-08T13:59:49;21.70;53.20
41644;DHT22;44236;48.098;11.582;2023-10-08T14:02:16;21.70;53.20
41644;DHT22;44236;48.098;11.582;2023-10-08T14:04:45;21.70;53.20
41644;DHT22;44236;48.098;11.582;2023-10-08T14:07:12;21.70;53.10
41644;DHT22;44236;48.098;11.582;2023-10-08T14:09:42;21.70;53.00
41644;DHT22;44236;48.098;11.582;2023-10-08T14:12:08;21.70;53.20
41644;DHT22;44236;48.098;11.582;2023-10-08T14:14:35;21.70;53.40
41644;DHT22;44236;48.098;11.582;2023-10-08T14:17:02;21.70;53.20
41644;DHT22;44236;48.098;11.582;2023-10-08T14:19:36;21.70;53.10
41644;DHT22;44236;48.098;11.582;2023-10-08T14:22:22;21.70;52.90
41644;DHT22;44236;48.098;11.582;2023-10-08T14:24:48;21.80;53.50
41644;DHT22;44236;48.098;11.582;2023-10-08T14:27:25;21.80;53.60
41644;DHT22;44236;48.098;11.582;2023-10-08T19:45:10;20.10;63.10
41644;DHT22;44236;48.098;11.582;2023-10-08T19:48:31;19.80;63.30
41644;DHT22;44236;48.098;11.582;2023-10-08T19:50:56;19.80;64.30
41644;DHT22;44236;48.098;11.582;2023-10-08T19:53:22;19.80;63.60
41644;DHT22;44236;48.098;11.582;2023-10-08T19:55:50;19.80;64.40
41644;DHT22;44236;48.098;11.582;2023-10-08T19:58:19;19.80;64.70
41644;DHT22;44236;48.098;11.582;2023-10-08T20:00:46;19.80;64.40
41644;DHT22;44236;48.098;11.582;2023-10-08T20:03:12;19.70;64.90
41644;DHT22;44236;48.098;11.582;2023-10-08T20:05:39;19.60;64.60
41644;DHT22;44236;48.098;11.582;2023-10-08T20:08:05;19.60;63.10
41644;DHT22;44236;48.098;11.582;2023-10-08T20:10:32;19.70;62.10
41644;DHT22;44236;48.098;11.582;2023-10-08T20:13:00;19.80;62.60
41644;DHT22;44236;48.098;11.582;2023-10-08T20:15:25;19.90;61.70
41644;DHT22;44236;48.098;11.582;2023-10-08T20:17:52;20.00;61.50
41644;DHT22;44236;48.098;11.582;2023-10-08T20:20:20;20.10;61.10
41644;DHT22;44236;48.098;11.582;2023-10-08T20:22:54;20.10;61.00
41644;DHT22;44236;48.098;11.582;2023-10-08T20:25:21;20.10;61.00
41644;DHT22;44236;48.098;11.582;2023-10-08T20:27:48;20.10;60.80
41644;DHT22;44236;48.098;11.582;2023-10-08T20:30:14;20.10;60.90
41644;DHT22;44236;48.098;11.582;2023-10-08T20:32:48;20.20;60.60
41644;DHT22;44236;48.098;11.582;2023-10-08T20:35:15;20.20;60.40
41644;DHT22;44236;48.098;11.582;2023-10-08T20:37:46;20.20;60.50
41644;DHT22;44236;48.098;11.582;2023-10-08T20:40:12;20.20;60.50
41644;DHT22;44236;48.098;11.582;2023-10-08T20:42:45;20.30;59.30
41644;DHT22;44236;48.098;11.582;2023-10-08T20:45:15;20.40;59.70
41644;DHT22;44236;48.098;11.582;2023-10-08T20:47:41;20.50;59.30
41644;DHT22;44236;48.098;11.582;2023-10-08T20:50:07;20.50;59.20
41644;DHT22;44236;48.098;11.582;2023-10-08T20:52:46;20.60;59.10
41644;DHT22;44236;48.098;11.582;2023-10-08T20:55:13;20.60;58.90
41644;DHT22;44236;48.098;11.582;2023-10-08T20:57:42;20.70;58.90
41644;DHT22;44236;48.098;11.582;2023-10-08T21:00:09;20.70;58.70
41644;DHT22;44236;48.098;11.582;2023-10-08T21:02:34;20.70;58.70
41644;DHT22;44236;48.098;11.582;2023-10-08T21:05:04;20.70;58.70
41644;DHT22;44236;48.098;11.582;2023-10-08T21:07:31;20.70;58.70
41644;DHT22;44236;48.098;11.582;2023-10-08T21:09:59;20.80;58.60
41644;DHT22;44236;48.098;11.582;2023-10-08T21:12:26;20.80;58.60
41644;DHT22;44236;48.098;11.582;2023-10-08T21:14:54;20.80;58.30
41644;DHT22;44236;48.098;11.582;2023-10-08T21:17:23;20.80;58.30
41644;DHT22;44236;48.098;11.582;2023-10-08T21:19:52;20.80;58.30